MDT,Max TemperatureF,Mean TemperatureF,Min TemperatureF,Max Dew PointF,MeanDew PointF,Min DewpointF,Max Humidity, Mean Humidity, Min Humidity, Max Sea Level PressureIn, Mean Sea Level PressureIn, Min Sea Level PressureIn, Max VisibilityMiles, Mean VisibilityMiles, Min VisibilityMiles, Max Wind SpeedMPH, Mean Wind SpeedMPH, Max Gust SpeedMPH,PrecipitationIn, CloudCover, Events, WindDirDegrees
2012-9-1,97,75,53,49,36,25,52,30,8,30.02,29.93,29.85,10,10,5,28,13,33,0.00,0,,181
2012-9-2,96,77,57,46,43,38,55,36,17,29.92,29.88,29.84,10,10,10,29,11,36,0.00,0,,22
2012-9-3,86,75,64,58,51,46,54,42,29,30.01,29.91,29.83,10,10,10,20,8,23,0.01,3,Rain,266
2012-9-4,95,77,58,59,50,45,67,42,17,29.97,29.87,29.77,10,10,3,40,8,47,0.07,2,Rain-Thunderstorm,237
2012-9-5,85,69,53,52,38,33,80,48,16,30.02,29.95,29.81,10,10,10,24,10,30,0.00,0,,47
2012-9-6,97,75,53,57,39,14,84,45,5,29.96,29.92,29.88,10,10,10,15,7,26,0.00,0,,205
2012-9-7,73,61,48,58,44,41,93,64,35,30.31,30.11,29.82,10,10,10,24,12,32,0.00,2,,9
2012-9-8,84,64,43,45,38,32,89,53,16,30.32,30.22,30.10,10,10,10,16,6,29,0.00,0,,288
2012-9-9,85,62,39,42,36,32,76,46,15,30.26,30.14,30.01,10,10,10,22,10,29,0.00,0,,159
2012-9-10,94,70,46,45,37,27,66,38,9,30.00,29.89,29.80,10,10,10,24,14,31,0.00,0,,176
2012-9-11,97,78,58,44,39,25,55,32,8,29.81,29.73,29.66,10,10,10,26,8,32,0.00,0,,164
2012-9-12,69,60,50,52,44,32,96,62,28,30.36,30.13,29.75,10,9,4,29,17,40,0.22,6,Rain,19
2012-9-13,69,59,49,50,43,32,93,60,26,30.47,30.42,30.37,10,9,7,13,7,18,0.00,5,,44
2012-9-14,78,61,44,42,37,35,83,53,22,30.42,30.33,30.25,10,10,10,16,9,20,0.00,0,,201
2012-9-15,82,64,46,38,32,27,61,38,14,30.32,30.12,30.01,10,10,10,18,9,22,0.00,0,,192
2012-9-16,89,70,51,37,30,23,51,30,9,30.07,29.91,29.79,10,10,10,20,11,25,0.00,0,,199
2012-9-17,66,53,40,42,38,34,76,55,34,30.18,30.06,29.86,10,10,10,23,12,29,T,1,,355
2012-9-18,83,63,42,41,35,31,82,49,15,30.16,30.03,29.93,10,10,7,21,10,28,0.00,0,,268
2012-9-19,90,68,46,34,30,25,46,28,9,30.09,29.96,29.90,10,10,10,25,12,31,0.00,0,,326
2012-9-20,86,62,38,34,31,27,70,42,13,30.15,30.02,29.92,10,10,10,24,9,31,0.00,0,,240
2012-9-21,85,67,48,33,31,29,50,32,14,30.04,30.01,29.96,10,10,10,21,9,29,0.00,0,,307
2012-9-22,75,59,43,33,30,28,67,43,19,30.28,30.20,30.06,10,10,10,17,9,21,0.00,0,,113
2012-9-23,73,59,45,33,30,27,54,39,23,30.22,30.14,30.07,10,10,10,21,14,29,0.00,0,,165
2012-9-24,86,62,38,43,38,32,79,49,19,30.04,29.92,29.81,10,10,10,17,5,18,T,1,,135
2012-9-25,77,61,45,49,45,41,89,61,33,29.96,29.86,29.81,10,10,10,15,8,21,0.00,2,,88
2012-9-26,77,66,54,54,50,47,86,62,38,30.12,30.02,29.92,10,10,8,18,7,24,0.02,5,Rain,112
2012-9-27,68,61,53,56,54,52,100,82,63,30.23,30.15,30.06,10,9,5,15,8,18,0.12,7,Rain-Thunderstorm,148
2012-9-28,71,61,51,55,53,48,100,77,53,30.23,30.16,30.07,10,7,0,15,6,21,T,6,Fog-Rain,101
2012-9-29,71,62,52,56,53,48,100,77,53,30.20,30.12,30.02,10,8,0,15,7,20,0.00,6,Fog,177
2012-9-30,83,66,48,53,45,36,100,61,21,30.06,29.97,29.88,10,9,6,35,10,49,0.01,2,Rain-Thunderstorm,312